Tiempo atmosférico en la estación meteorológica de Málaga, Centro Meteorológico, Málaga (60 m.)



Fecha
DESCASC
Temp. máxima en grados centígrados (hora)
DESCASC
Temp. mínima en grados centígrados (hora)
DESCASC
Temp. media en grados centígrados
DESCASC
Racha de viento máxima en m/sg (hora)
DESCASC
Velocidad máxima media en intervalos de 10 minutos(hora)
DESCASC
Precipitaciones diarias en mm
DESCASC
Precipitaciones de 00:00 a 06:00 en mm
DESCASC
Precipitaciones de 06:00 a 12:00 en mm
DESCASC
Precipitaciones de 12:00 a 18:00 en mm
DESCASC
Precipitaciones de 18:00 a 24:00 en mm
DESCASC
25-04-2019 21.7 (19:10) 15.3 (11:00) 18.5 7.5 (20:20) 3.61 (04:40) 1.3 0 1.3 0 0
24-04-2019 20.8 (18:50) 10.1 (07:00) 15.4 10.56 (17:40) 5.83 (13:20) 0 0 0 0 0
23-04-2019 20.2 (17:50) 11.5 (11:30) 15.9 10.28 (18:40) 5.56 (18:40) 4.1 0 4.1 0 0
22-04-2019 25 (17:30) 13.5 (00:00) 19.3 11.11 (19:40) 5.83 (20:20) 0 0 0 0 0
21-04-2019 22.1 (14:40) 12.5 (00:00) 17.3 6.11 (15:30) 3.61 (15:30) 7.2 0 0 1.7 5.5
20-04-2019 19.9 (15:40) 11.8 (00:00) 15.8 6.39 (15:00) 4.44 (17:50) 0 0 0 0 0
19-04-2019 21.1 (14:50) 10.8 (00:00) 16 6.11 (15:30) 3.89 (15:30) 0 0 0 0 0
18-04-2019 -- (--) -- (--) -- -- (--) -- (--) -- 2.4 -- 3.6 1.1
17-04-2019 20 (13:30) 13.2 (00:00) 16.6 8.06 (13:30) 5.28 (14:10) 0 0 0 0 0
16-04-2019 23.9 (12:20) 15 (00:00) 19.4 8.89 (13:30) 5.83 (15:10) 0 0 0 0 0
15-04-2019 26.1 (13:20) 14.4 (00:00) 20.3 8.61 (21:30) 5 (17:00) 0 0 0 0 0
14-04-2019 23.2 (11:20) 15.8 (00:00) 19.5 6.94 (16:30) 3.89 (16:00) 0 0 0 0 0
13-04-2019 27.5 (16:20) 13.2 (00:00) 20.3 13.06 (14:10) 4.44 (17:20) 0 0 0 0 0
12-04-2019 25 (14:00) 12.5 (00:00) 18.8 8.06 (14:10) 5.56 (14:10) 0 0 0 0 0
11-04-2019 23.4 (15:50) 11.8 (00:00) 17.6 10 (13:20) 5 (13:20) 0 0 0 0 0
10-04-2019 20.2 (18:10) 12.2 (00:00) 16.2 13.33 (12:20) 6.39 (12:40) 0 0 0 0 0
09-04-2019 21.5 (17:30) 11.6 (00:00) 16.6 10.28 (18:30) 5.28 (22:30) 0 0 0 0 0
08-04-2019 21.2 (14:30) 11.7 (00:00) 16.5 8.33 (17:20) 5.28 (17:20) 0 0 0 0 0
07-04-2019 19.3 (15:20) 11.9 (00:00) 15.6 7.78 (07:40) 3.61 (13:00) 0.2 0 0.2 0 0
06-04-2019 18.4 (14:40) 11 (00:00) 14.7 9.17 (15:10) 5.56 (13:50) 1.3 0 0 1.3 0
05-04-2019 18.1 (17:00) 11.9 (00:00) 15 10.56 (19:10) 5.56 (16:20) 9.3 0 5.9 3.4 0
04-04-2019 22.6 (15:20) 11.2 (00:00) 16.9 9.72 (17:10) 6.39 (17:10) 0 0 0 0 0
03-04-2019 24.5 (14:10) 13.1 (00:00) 18.8 8.61 (20:10) 4.72 (13:10) 0 0 0 0 0
02-04-2019 21.6 (13:50) 10.2 (00:00) 15.9 5.83 (17:10) 4.17 (19:40) 0 0 0 0 0
01-04-2019 18.8 (12:10) 13 (00:00) 15.9 5.83 (19:50) 3.61 (16:20) 2.3 0.1 0.7 1.5 0
31-03-2019 18.8 (15:50) 12.8 (00:00) 15.8 7.5 (19:20) 5 (19:20) 19 5.9 12.8 0 0.3
30-03-2019 18.3 (14:00) 14 (00:00) 16.1 9.72 (15:10) 6.39 (13:00) 0.1 0 0 0 0.1
29-03-2019 19.3 (14:00) 11.2 (00:00) 15.2 10.56 (08:40) 6.11 (09:30) 0 0 0 0 0
28-03-2019 18.5 (12:30) 13.4 (00:00) 15.9 11.67 (14:40) 7.5 (12:50) 0 0 0 0 0
27-03-2019 19.6 (13:20) 14.2 (00:00) 16.9 13.33 (04:20) 8.61 (07:10) 0 0 0 0 0

Gráficas

Temp. máximas Temp. mínimas Temp. medias Precipitaciones Rachas de viento máximas Velocidades máximas media en intervalos de 10 minutos

Datos horarios

Fecha y hora oficial Temperatura (ºC) Velocidad del viento (km/h) Dirección del viento Racha (km/h) Dirección de racha Precipitación (mm) Presión (hPa) Tendencia (hPa) Humedad (%)
2019-04-25 23:00:00 16.6 10 Noroeste 18 Noroeste 0 1014.9 3.2 53
2019-04-25 22:00:00 17.2 6 Noroeste 21 Noroeste 0 1013.8 2.6 49
2019-04-25 21:00:00 18.5 10 Noroeste 27 Noroeste 0 1012.6 1.3 43
2019-04-25 20:00:00 20.4 8 Noroeste 22 Noroeste 0 1011.7 0.5 41
2019-04-25 19:00:00 21.4 8 Sudoeste 15 Sur 0 1011.2 0 50
2019-04-25 18:00:00 20.5 7 Oeste 16 Oeste 0 1011.3 0 50
2019-04-25 17:00:00 20.3 4 Noroeste 11 Noroeste 0 1011.2 -0.6 50
2019-04-25 16:00:00 20 4 Noroeste 19 Oeste 0 1011.2 -0.5 50
2019-04-25 15:00:00 19.5 7 Noroeste 22 Oeste 0 1011.3 -0.3 52
2019-04-25 14:00:00 17.8 7 Oeste 18 Noroeste 0 1011.8 1.1 58
2019-04-25 13:00:00 17.1 8 Noroeste 23 Noroeste 0 1011.7 1.9 61
2019-04-25 12:00:00 16.8 6 Noroeste 21 Oeste 0 1011.6 2.1 74
2019-04-25 11:00:00 15.3 8 Noroeste 19 Noroeste 0.5 1010.7 1.8 94
2019-04-25 10:00:00 16.7 3 Nordeste 8 Nordeste 0.5 1009.8 1.6 94
2019-04-25 09:00:00 16.2 5 Nordeste 9 Nordeste 0 1009.5 1.3 93
2019-04-25 08:00:00 16 9 Oeste 21 Sur 0.3 1008.9 0.6 91
2019-04-25 07:00:00 17 7 Sur 17 Sudoeste 0 1008.2 -0.3 82
2019-04-25 06:00:00 16.9 2 Oeste 18 Sudoeste 0 1008.2 -0.7 82
2019-04-25 05:00:00 16.2 9 Sur 19 Sur 0 1008.3 -1.1 88
2019-04-25 04:00:00 16.5 10 Sur 21 Sudoeste 0 1008.5 -0.9 83
2019-04-25 03:00:00 16.7 6 Sur 21 Sudoeste 0 1008.9 -0.7 77
2019-04-25 02:00:00 16.5 4 Sudoeste 13 Este 0 1009.4 -0.1 74
2019-04-25 01:00:00 16.6 6 Este 17 Este 0 1009.4 0.5 70
2019-04-25 00:00:00 16.4 0 Calma 18 Sudoeste 0 1009.6 1.4 65
2019-04-24 23:00:00 16.7 3 Sudoeste 15 Sudoeste 0 1009.5 2 58
2019-04-24 22:00:00 17.2 4 Sudoeste 21 Sudoeste 0 1008.9 1.6 55
2019-04-24 21:00:00 17.9 12 Sudoeste 22 Sudoeste 0 1008.2 0.8 53
2019-04-24 20:00:00 19.2 17 Sudoeste 32 Sudoeste 0 1007.5 0.4 52
2019-04-24 19:00:00 20.7 21 Sudoeste 34 Oeste 0 1007.3 -0.6 46
2019-04-24 18:00:00 19 15 Sudoeste 38 Oeste 0 1007.4 -0.5 52
2019-04-24 17:00:00 19.8 12 Sur 22 Sur 0 1007.1 -0.9 53
2019-04-24 16:00:00 18.1 11 Sudoeste 24 Oeste 0 1007.9 -0.2 58
2019-04-24 15:00:00 17.8 17 Oeste 35 Oeste 0 1007.9 -0.1 59
2019-04-24 14:00:00 17.7 14 Sudoeste 32 Sudoeste 0 1008 0.2 61
2019-04-24 13:00:00 17.1 12 Sudoeste 25 Sudoeste 0 1008.1 0.6 62
2019-04-24 12:00:00 16.7 10 Sur 18 Sudeste 0 1008 1.3 65
2019-04-24 11:00:00 15.5 9 Sudeste 13 Sudeste 0 1007.8 1.8 70
2019-04-24 10:00:00 15 6 Sudeste 13 Sudeste 0 1007.5 2.3 64
2019-04-24 09:00:00 12 0 Calma 7 Oeste 0 1006.7 1.8 83
2019-04-24 08:00:00 10.6 2 Nordeste 5 Nordeste 0 1006 1.3 82
2019-04-24 07:00:00 10.1 0 Calma 10 Sudoeste 0 1005.2 0.7 80
2019-04-24 06:00:00 11.4 4 Norte 8 Noroeste 0 1004.9 0.1 74
2019-04-24 05:00:00 11.6 3 Oeste 6 Norte 0 1004.7 0.2 68
2019-04-24 04:00:00 12.7 4 Norte 8 Norte 0 1004.5 0.1 62
2019-04-24 03:00:00 12.6 3 Norte 7 Norte 0 1004.8 0.8 64
2019-04-24 02:00:00 12 0 Calma 6 Oeste 0 1004.5 1.3 64
2019-04-24 01:00:00 12.1 5 Oeste 10 Norte 0 1004.4 2.4 59
2019-04-24 00:00:00 13.2 4 Noroeste 8 Oeste 0 1004 3.4 53
2019-04-23 23:00:00 13.6 6 Oeste 10 Oeste 0 1003.2 3.8 50
2019-04-23 22:00:00 14.8 4 Oeste 26 Oeste 0 1002 3.2 42
2019-04-23 21:00:00 16.2 12 Oeste 29 Oeste 0 1000.6 2.5 36
2019-04-23 20:00:00 18.1 17 Oeste 32 Oeste 0 999.4 1.6 33
2019-04-23 19:00:00 18.2 17 Oeste 37 Oeste 0 998.8 0.5 33
2019-04-23 18:00:00 19.5 18 Oeste 35 Oeste 0 998.1 -0.1 32
2019-04-23 17:00:00 19.5 10 Oeste 23 Oeste 0 997.8 -0.7 38
2019-04-23 16:00:00 17 10 Sur 28 Sudoeste 0 998.3 -0.6 50
2019-04-23 15:00:00 18.5 10 Sur 24 Noroeste 0 998.2 -0.8 48
2019-04-23 14:00:00 17.7 13 Oeste 23 Noroeste 0 998.5 0.4 48
2019-04-23 13:00:00 14.7 2 Norte 23 Oeste 0 998.9 2.4 65
2019-04-23 12:00:00 11.8 9 Oeste 19 Norte 0.5 999 3.2 85
2019-04-23 11:00:00 11.9 10 Noroeste 27 Noroeste 1.3 998.1 2.7 83
2019-04-23 10:00:00 14.8 6 Oeste 18 Oeste 2.1 996.5 1.5 89
2019-04-23 09:00:00 15.9 16 Sudoeste 29 Oeste 0.2 995.8 0 71
2019-04-23 08:00:00 16.4 7 Oeste 21 Oeste 0 995.4 -0.8 64
2019-04-23 07:00:00 15.8 8 Sudoeste 22 Sudoeste 0 995 -1.7 69
2019-04-23 06:00:00 15.6 9 Nordeste 15 Este 0 995.8 -1.5 74
2019-04-23 05:00:00 15.8 9 Nordeste 16 Sudeste 0 996.2 -1.4 70
2019-04-23 04:00:00 16 8 Nordeste 13 Este 0 996.7 -1.3 67
2019-04-23 03:00:00 15.7 4 Este 8 Este 0 997.3 -0.5 67
2019-04-23 02:00:00 16.7 2 Norte 6 Norte 0 997.6 0 61
2019-04-23 01:00:00 16.8 3 Norte 8 Noroeste 0 998 0.9 59
2019-04-23 00:00:00 17.5 5 Oeste 12 Oeste 0 997.8 1.5 52
2019-04-22 23:00:00 19.1 6 Noroeste 21 Oeste 0 997.6 2 43
2019-04-22 22:00:00 19.8 12 Oeste 24 Oeste 0 997.1 1.8 38
2019-04-22 21:00:00 21.4 14 Oeste 36 Oeste 0 996.3 1.1 31
2019-04-22 20:00:00 23.2 20 Oeste 40 Oeste 0 995.6 -0.1 28
2019-04-22 19:00:00 23.6 11 Oeste 29 Noroeste 0 995.3 -1.5 31
2019-04-22 18:00:00 24.7 14 Oeste 28 Noroeste 0 995.2 -2.2 30
2019-04-22 17:00:00 24.5 10 Noroeste 28 Noroeste 0 995.7 -2.5 33
2019-04-22 16:00:00 23.7 12 Noroeste 30 Noroeste 0 996.8 -2 35
2019-04-22 15:00:00 23.1 10 Noroeste 39 Oeste 0 997.4 -2 36
2019-04-22 14:00:00 22.2 20 Oeste 38 Noroeste 0 998.2 -1.2 38
2019-04-22 13:00:00 21.4 11 Noroeste 31 Noroeste 0 998.8 -0.6 42
2019-04-22 12:00:00 18.9 11 Noroeste 27 Oeste 0 999.4 0.3 49
2019-04-22 11:00:00 17 14 Noroeste 29 Noroeste 0 999.4 0.5 55
2019-04-22 10:00:00 15.5 19 Oeste 34 Noroeste 0 999.4 0.9 59
2019-04-22 09:00:00 14.8 11 Noroeste 23 Noroeste 0 999.1 0.3 64
2019-04-22 08:00:00 14.2 12 Oeste 23 Oeste 0 998.9 -0.2 65
2019-04-22 07:00:00 14.1 12 Noroeste 25 Noroeste 0 998.5 -0.7 68
2019-04-22 06:00:00 13.9 11 Oeste 22 Noroeste 0 998.8 -0.9 70
2019-04-22 05:00:00 13.8 13 Noroeste 23 Noroeste 0 999.1 -0.9 71
2019-04-22 04:00:00 13.8 6 Noroeste 17 Noroeste 0 999.2 -1.3 74
2019-04-22 03:00:00 14 9 Noroeste 20 Noroeste 0 999.7 -1.6 74
2019-04-22 02:00:00 14.2 10 Oeste 17 Oeste 0 1000 -1.5 79
2019-04-22 01:00:00 15 9 Oeste 16 Oeste 0 1000.5 -0.8 80
2019-04-22 00:00:00 14.6 4 Noroeste 9 Oeste 0 1001.3 0.1 93
2019-04-21 23:00:00 14.9 4 Oeste 7 Oeste 0 1001.5 0.1 92
2019-04-21 22:00:00 15.2 4 Oeste 6 Noroeste 0 1001.3 -0.2 91
2019-04-21 21:00:00 15.3 0 Calma 4 Este 0 1001.2 0.1 91
2019-04-21 20:00:00 15.3 2 Nordeste 5 Sur 0 1001.4 0 91
2019-04-21 19:00:00 15.1 5 Sudeste 13 Sudeste 5.5 1001.5 0.3 91
2019-04-21 18:00:00 16.2 6 Este 16 Este 0.6 1001.1 0.3 85
2019-04-21 17:00:00 16.7 8 Este 19 Nordeste 1.1 1001.4 -0.1 79
2019-04-21 16:00:00 18.9 9 Este 22 Sudeste 0 1001.2 -1.1 52
2019-04-21 15:00:00 21.3 9 Sudeste 18 Sur 0 1000.8 -2.2 49
2019-04-21 14:00:00 20.8 8 Sudeste 21 Sur 0 1001.5 -1.6 50
2019-04-21 13:00:00 19.5 3 Sur 12 Sudoeste 0 1002.3 -1 53
2019-04-21 12:00:00 16.9 4 Oeste 11 Oeste 0 1003 -0.3 70
2019-04-21 11:00:00 14.9 5 Noroeste 12 Oeste 0 1003.1 -0.2 79
2019-04-21 10:00:00 14.1 8 Oeste 16 Oeste 0 1003.3 -0.5 84
2019-04-21 09:00:00 13.6 9 Noroeste 15 Noroeste 0 1003.3 -0.8 89
2019-04-21 08:00:00 12.9 8 Noroeste 15 Noroeste 0 1003.3 -1.3 91
2019-04-21 07:00:00 12.6 11 Noroeste 18 Oeste 0 1003.8 -1.5 92
2019-04-21 06:00:00 12.9 6 Noroeste 19 Oeste 0 1004.1 -2.2 92
2019-04-21 05:00:00 13.2 9 Noroeste 17 Noroeste 0 1004.6 -2.5 92
2019-04-21 04:00:00 13.1 5 Noroeste 12 Noroeste 0 1005.3 -2.3 91
2019-04-21 03:00:00 13.2 9 Oeste 13 Oeste 0 1006.3 -1.7 89
2019-04-21 02:00:00 14.2 4 Noroeste 12 Noroeste 0 1007.1 -0.9 86
2019-04-21 01:00:00 14.3 3 Noroeste 7 Noroeste 0 1007.6 0 82
2019-04-21 00:00:00 14.7 2 Noroeste 5 Sudeste 0 1008 0.9 80
2019-04-20 23:00:00 14.9 2 Este 13 Sudeste 0 1008 1.5 80
2019-04-20 22:00:00 15.5 7 Sudeste 18 Sudeste 0 1007.6 1.6 82
2019-04-20 21:00:00 15.7 12 Sudeste 21 Sudeste 0 1007.1 1.6 83
2019-04-20 20:00:00 15.9 13 Sudeste 23 Sudeste 0 1006.5 1 82
2019-04-20 19:00:00 16.5 15 Sudeste 22 Sudeste 0 1006 0.6 73
2019-04-20 18:00:00 17.8 14 Sudeste 22 Sudeste 0 1005.5 0 68
2019-04-20 17:00:00 18.1 14 Sudeste 23 Sudeste 0 1005.5 0.2 61
2019-04-20 16:00:00 19 12 Sudeste 23 Sudeste 0 1005.4 0 59
2019-04-20 15:00:00 18.6 14 Este 23 Este 0 1005.5 -0.4 59
2019-04-20 14:00:00 18.5 10 Sudeste 15 Sudeste 0 1005.3 -1.1 58
2019-04-20 13:00:00 18.2 0 Calma 14 Oeste 0 1005.4 -1.1 58
2019-04-20 12:00:00 18.1 8 Sudoeste 15 Sudoeste 0 1005.9 -0.6 62
2019-04-20 11:00:00 15.1 9 Oeste 20 Oeste 0 1006.4 0.6 76
2019-04-20 10:00:00 13.8 14 Oeste 22 Oeste 0 1006.5 0.7 82
2019-04-20 09:00:00 12.6 4 Noroeste 11 Noroeste 0 1006.5 0.3 85
2019-04-20 08:00:00 12.1 6 Noroeste 17 Oeste 0 1005.8 -1.5 85
2019-04-20 07:00:00 12 6 Noroeste 13 Noroeste 0 1005.8 -2.2 84
2019-04-20 06:00:00 12.4 6 Noroeste 14 Noroeste 0 1006.2 -2.5 83
2019-04-20 05:00:00 12.3 8 Oeste 13 Oeste 0 1007.3 -2.4 85
2019-04-20 04:00:00 12.6 6 Noroeste 12 Oeste 0 1008 -2.1 85
2019-04-20 03:00:00 12.7 5 Noroeste 11 Noroeste 0 1008.7 -1.5 86
2019-04-20 02:00:00 12.3 4 Noroeste 12 Oeste 0 1009.7 -0.6 86
2019-04-20 01:00:00 13.2 4 Noroeste 9 Noroeste 0 1010.1 0 83
2019-04-20 00:00:00 13.9 6 Oeste 9 Sudoeste 0 1010.2 0.7 76
2019-04-19 23:00:00 15.2 0 Calma 5 Noroeste 0 1010.3 1.4 65
2019-04-19 22:00:00 15.7 3 Sudeste 8 Sudeste 0 1010.1 1.6 61
2019-04-19 21:00:00 16.1 6 Sudeste 13 Sudeste 0 1009.5 1.4 57
2019-04-19 20:00:00 16.8 8 Sudeste 11 Sudeste 0 1008.9 1 53
2019-04-19 19:00:00 17.8 7 Sudeste 16 Sudeste 0 1008.5 0.1 52
2019-04-19 18:00:00 18.5 9 Sudeste 18 Sur 0 1008.1 -0.2 47
2019-04-19 17:00:00 20.2 11 Sudeste 21 Sudeste 0 1007.9 -0.9 45
2019-04-19 16:00:00 19.1 14 Sudeste 22 Sudeste 0 1008.4 -1.2 50
2019-04-19 15:00:00 20.7 11 Sudeste 19 Sudeste 0 1008.3 -0.8 46
2019-04-19 14:00:00 20 10 Sudeste 20 Sur 0 1008.8 -0.2 45
2019-04-19 13:00:00 17.8 10 Este 17 Este 0 1009.6 0.4 50
2019-04-19 12:00:00 19.7 8 Sudoeste 18 Sudoeste 0 1009.1 -0.1 49
2019-04-19 11:00:00 17.9 12 Oeste 20 Oeste 0 1009 0.2 62
2019-04-19 10:00:00 14.8 13 Oeste 19 Oeste 0 1009.2 0.7 73
2019-04-19 09:00:00 12.6 7 Oeste 15 Oeste 0 1009.2 0.6 88
2019-04-19 08:00:00 10.9 8 Oeste 18 Noroeste 0 1008.8 -0.2 88
2019-04-19 07:00:00 10.9 10 Oeste 15 Oeste 0 1008.5 -0.7 89
2019-04-19 06:00:00 11.2 11 Oeste 15 Oeste 0 1008.6 -0.9 86
2019-04-19 05:00:00 11.4 8 Oeste 14 Oeste 0 1009 -1.1 85
2019-04-19 04:00:00 11.7 9 Noroeste 14 Oeste 0 1009.2 -0.7 83
2019-04-19 03:00:00 11.7 8 Oeste 12 Oeste 0 1009.5 0 86
2019-04-19 02:00:00 11.6 8 Oeste 11 Noroeste 0 1010.1 0.9 86
2019-04-19 01:00:00 12.3 6 Noroeste 14 Noroeste 0 1009.9 1 86
2019-04-19 00:00:00 12.2 5 Noroeste 14 Oeste 0 1009.5 0.8 88
2019-04-18 23:00:00 12.1 6 Oeste 15 Oeste 0 1009.2 1.3 89
2019-04-18 22:00:00 13 11 Oeste -- -- 0.5 1008.9 1.5 86
2019-04-18 21:00:00 13.7 6 Norte 32 Nordeste 0.6 1008.7 1.2 74
2019-04-18 20:00:00 16.3 5 Nordeste 10 Sur 0 1007.9 0.6 71
2019-04-18 19:00:00 16.6 2 Sudeste 8 Nordeste 0 1007.4 0.7 68
2019-04-18 18:00:00 15.8 3 Oeste -- -- 0 1007.5 0.8 79
2019-04-18 17:00:00 14.4 7 Norte 33 Noroeste 1.8 1007.3 0.1 80
2019-04-18 16:00:00 18.7 11 Sur 24 Sur 0 1006.7 -1.4 56
2019-04-18 15:00:00 20.3 5 Sudeste 18 Sur 0 1006.7 -2.3 55
2019-04-18 14:00:00 18.8 2 Sur 10 Sudoeste 0 1007.2 -1.2 58
2019-04-18 13:00:00 15.3 2 Norte 12 Norte 1.8 1008.1 -0.6 85
2019-04-18 12:00:00 15 13 Oeste 30 Noroeste 0.4 1009 0.7 68
2019-04-18 11:00:00 16.7 5 Sudoeste 12 Sudoeste 0 1008.4 0.7 79
2019-04-18 10:00:00 15 3 Nordeste 7 Este 0 1008.7 -- 94
2019-04-18 09:00:00 13.4 4 Este 8 Este 0.4 1008.3 -- 95
2019-04-18 08:00:00 13.6 5 Este -- -- -- 1007.7 -0.4 95
2019-04-18 07:00:00 -- -- -- -- -- -- -- -- --
2019-04-18 06:00:00 -- 6 Nordeste 8 Nordeste 0.7 -- -- --
2019-04-18 05:00:00 15.6 5 Sudoeste 9 Noroeste 1.6 1008.1 -0.2 92
2019-04-18 04:00:00 15.8 5 Noroeste 10 Noroeste 0 1007.4 -1.3 91
2019-04-18 03:00:00 15.7 4 Norte 11 Noroeste 0 1007.9 -2.1 91
2019-04-18 02:00:00 16.2 7 Sudoeste 10 Sudoeste 0.1 1008.3 -1.3 89
2019-04-18 01:00:00 16.3 4 Nordeste 12 Este 0 1008.7 -0.4 86
2019-04-18 00:00:00 16.4 3 Norte 12 Sudeste 0 1010 2 86
2019-04-17 23:00:00 16.6 10 Sur 19 Sur 0 1009.6 1.6 82
2019-04-17 22:00:00 17 3 Sudeste 12 Sudeste 0 1009.1 1.7 76
2019-04-17 21:00:00 17.1 4 Sudeste 10 Sudeste 0 1008 1.7 76
2019-04-17 20:00:00 17.2 6 Sur 18 Sur 0 1008 1.5 74
2019-04-17 19:00:00 17.6 12 Sur 18 Sudeste 0 1007.4 0.5 71
2019-04-17 18:00:00 18.1 7 Sur 19 Sur 0 1006.3 -0.7 70
2019-04-17 17:00:00 18.3 11 Sur 22 Sur 0 1006.5 -1.2 73
2019-04-17 16:00:00 17.6 14 Sudeste 22 Sur 0 1006.9 -1.9 77
2019-04-17 15:00:00 18.2 15 Sudeste 28 Sudeste 0 1007 -2.2 76
2019-04-17 14:00:00 18.5 17 Sudeste 29 Sudeste 0 1007.7 -1.6 73
2019-04-17 13:00:00 19.6 14 Sur 27 Sudeste 0 1008.8 -0.7 67
2019-04-17 12:00:00 18.4 12 Sudeste 20 Sudeste 0 1009.2 -0.5 73
2019-04-17 11:00:00 18.5 10 Sur 19 Sur 0 1009.3 -0.2 73
2019-04-17 10:00:00 17.3 7 Sudeste 14 Sur 0 1009.5 0.1 82
2019-04-17 09:00:00 14.9 3 Oeste 5 Oeste 0 1009.7 -0.2 92
2019-04-17 08:00:00 13.6 3 Oeste 9 Oeste 0 1009.5 -0.6 91
2019-04-17 07:00:00 14.4 0 Calma 5 Norte 0 1009.4 -1.1 91
2019-04-17 06:00:00 14.8 3 Noroeste 6 Oeste 0 1009.9 -1.3 91
2019-04-17 05:00:00 15.2 4 Sur 10 Sudeste 0 1010.1 -1.6 86
2019-04-17 04:00:00 15.8 7 Sudeste 18 Sudeste 0 1010.5 -0.9 86
2019-04-17 03:00:00 15.9 6 Sudeste 12 Sudeste 0 1011.2 -0.3 88
2019-04-17 02:00:00 16.4 10 Sudeste 23 Sudeste 0 1011.7 0.5 86
2019-04-17 01:00:00 16.9 12 Sudeste 24 Sudeste 0 1011.4 0.7 79
2019-04-17 00:00:00 17.2 15 Este 27 Este 0 1011.5 1.4 74
2019-04-16 23:00:00 16.6 9 Sudeste 15 Sudeste 0 1011.2 1.6 80
2019-04-16 22:00:00 16.7 9 Sudeste 14 Sudeste 0 1010.7 1.1 80
2019-04-16 21:00:00 17.3 8 Sudeste 15 Sudeste 0 1010.1 0.5 79
2019-04-16 20:00:00 18.6 12 Sudeste 19 Sudeste 0 1009.6 -0.4 68
2019-04-16 19:00:00 19.7 13 Sudeste 23 Sudeste 0 1009.6 -1 64
2019-04-16 18:00:00 20.6 14 Sudeste 23 Sudeste 0 1009.6 -1.5 61
2019-04-16 17:00:00 20.6 16 Sudeste 26 Sudeste 0 1010 -1.8 65
2019-04-16 16:00:00 20.9 18 Sudeste 32 Sudeste 0 1010.6 -1.2 62
2019-04-16 15:00:00 21.5 18 Sudeste 31 Sudeste 0 1011.1 -0.7 56
2019-04-16 14:00:00 20.9 19 Sudeste 32 Sudeste 0 1011.8 0.2 59
2019-04-16 13:00:00 22.1 14 Este 24 Este 0 1011.8 0.1 50
2019-04-16 12:00:00 23.3 8 Sudeste 14 Sudeste 0 1011.8 -0.1 47
2019-04-16 11:00:00 21.6 8 Oeste 21 Oeste 0 1011.6 -0.1 53
2019-04-16 10:00:00 18.1 11 Oeste 24 Oeste 0 1011.7 0.1 65
2019-04-16 09:00:00 16.4 12 Oeste 20 Oeste 0 1011.9 0.2 73
2019-04-16 08:00:00 15.1 12 Oeste 21 Oeste 0 1011.7 0 74
2019-04-16 07:00:00 15.5 12 Oeste 22 Oeste 0 1011.6 -0.5 71
2019-04-16 06:00:00 16.3 11 Oeste 19 Noroeste 0 1011.7 -0.4 68
2019-04-16 05:00:00 16.6 13 Oeste 21 Noroeste 0 1011.7 -0.6 65
2019-04-16 04:00:00 17.1 3 Noroeste 17 Noroeste 0 1012.1 -0.1 64
2019-04-16 03:00:00 17.7 7 Noroeste 16 Noroeste 0 1012.1 0.2 62
2019-04-16 02:00:00 18.1 6 Noroeste 16 Noroeste 0 1012.3 1.3 62
2019-04-16 01:00:00 18.6 5 Noroeste 24 Noroeste 0 1012.2 2.3 58
2019-04-16 00:00:00 19.6 7 Noroeste 26 Noroeste 0 1011.9 3.5 52
2019-04-15 23:00:00 20.6 13 Noroeste 28 Noroeste 0 1011 3.2 46
2019-04-15 22:00:00 22.3 12 Noroeste 31 Noroeste 0 1009.9 2.8 38
2019-04-15 21:00:00 23.7 8 Noroeste 19 Noroeste 0 1008.4 1.5 30
2019-04-15 20:00:00 24 9 Nordeste 17 Sudeste 0 1007.8 0.8 42
2019-04-15 19:00:00 24.2 12 Este 24 Este 0 1007.1 -0.3 41
2019-04-15 18:00:00 23.5 18 Este 26 Este 0 1006.9 -0.9 38
2019-04-15 17:00:00 23.6 18 Este 28 Este 0 1007 -1.2 37
2019-04-15 16:00:00 23.6 15 Este 27 Este 0 1007.4 -1 37
2019-04-15 15:00:00 24.3 13 Sudeste 20 Sudeste 0 1007.8 -1 35
2019-04-15 14:00:00 24.2 13 Sudeste 19 Sudeste 0 1008.2 -0.6 37
2019-04-15 13:00:00 25.5 10 Sudeste 16 Sudeste 0 1008.4 -0.7 35
2019-04-15 12:00:00 22.9 3 Sur 9 Sur 0 1008.8 -0.2 47
2019-04-15 11:00:00 19.6 6 Sudoeste 10 Sudoeste 0 1008.8 0.2 61
2019-04-15 10:00:00 18.2 3 Oeste 8 Oeste 0 1009.1 1.2 68
2019-04-15 09:00:00 16.2 4 Oeste 12 Norte 0 1009 1 73
2019-04-15 08:00:00 15.2 5 Noroeste 9 Noroeste 0 1008.6 0.2 76
2019-04-15 07:00:00 14.7 4 Oeste 8 Noroeste 0 1007.9 -1.3 76
2019-04-15 06:00:00 15.3 3 Norte 7 Noroeste 0 1008 -1.4 77
2019-04-15 05:00:00 15.5 0 Calma 5 Oeste 0 1008.4 -1.5 79
2019-04-15 04:00:00 16.4 3 Oeste 5 Oeste 0 1009.2 -1.2 79
2019-04-15 03:00:00 16.9 0 Calma 7 Oeste 0 1009.4 -1 73
2019-04-15 02:00:00 17.8 3 Oeste 8 Nordeste 0 1009.9 -0.2 61
2019-04-15 01:00:00 18.1 6 Este 12 Este 0 1010.4 0.3 61
2019-04-15 00:00:00 18.1 5 Sudeste 7 Sudeste 0 1010.4 1 59
2019-04-14 23:00:00 18.6 0 Calma 6 Este 0 1010.1 0.7 56
2019-04-14 22:00:00 18.8 5 Sudeste 13 Sudeste 0 1010.1 0.7 53
2019-04-14 21:00:00 19.7 7 Sudeste 14 Sudeste 0 1009.4 -0.2 46
2019-04-14 20:00:00 21.1 9 Sudeste 16 Sudeste 0 1009.4 -0.6 41
2019-04-14 19:00:00 21.9 9 Este 21 Sudeste 0 1009.4 -1.5 41
2019-04-14 18:00:00 22 12 Sudeste 23 Sudeste 0 1009.6 -1.8 41
2019-04-14 17:00:00 22.2 12 Sudeste 25 Sudeste 0 1010 -2 41
2019-04-14 16:00:00 22.1 14 Sudeste 22 Sudeste 0 1010.9 -1.5 43
2019-04-14 15:00:00 22.7 14 Sudeste 21 Sudeste 0 1011.4 -1.3 43
2019-04-14 14:00:00 22.1 10 Este 18 Este 0 1012 -0.7 47
2019-04-14 13:00:00 22 10 Este 16 Sudeste 0 1012.4 -0.3 47
2019-04-14 12:00:00 22.3 10 Sudeste 15 Sudeste 0 1012.7 -0.1 43
2019-04-14 11:00:00 22.6 3 Sudoeste 9 Oeste 0 1012.7 0.2 38
2019-04-14 10:00:00 19.7 5 Oeste 12 Noroeste 0 1012.7 0.5 44
2019-04-14 09:00:00 17 8 Noroeste 15 Noroeste 0 1012.8 0.6 48
2019-04-14 08:00:00 16 5 Noroeste 18 Noroeste 0 1012.5 0 49
2019-04-14 07:00:00 16.5 6 Noroeste 19 Oeste 0 1012.2 -0.3 47
2019-04-14 06:00:00 16.5 9 Oeste 15 Noroeste 0 1012.2 -0.8 46
2019-04-14 05:00:00 17 8 Noroeste 17 Noroeste 0 1012.5 -0.9 46
2019-04-14 04:00:00 17 9 Oeste 13 Oeste 0 1012.5 -1.1 45
2019-04-14 03:00:00 18.3 9 Noroeste 17 Oeste 0 1013 -0.8 43
2019-04-14 02:00:00 18.1 7 Oeste 13 Norte 0 1013.4 -0.1 42
2019-04-14 01:00:00 19.3 6 Norte 16 Norte 0 1013.6 0.5 39
2019-04-14 00:00:00 19.6 6 Noroeste 14 Noroeste 0 1013.8 1.6 38
2019-04-13 23:00:00 19.5 4 Norte 6 Norte 0 1013.5 2 40
2019-04-13 22:00:00 19.9 4 Nordeste 16 Nordeste 0 1013.1 2.2 43
2019-04-13 21:00:00 20.8 11 Este 19 Nordeste 0 1012.2 1.4 39
2019-04-13 20:00:00 23.1 10 Este 15 Este 0 1011.5 0.7 34
2019-04-13 19:00:00 24.6 8 Este 20 Este 0 1010.9 -0.4 30
2019-04-13 18:00:00 25.8 9 Sudeste 29 Sudeste 0 1010.8 -1 29
2019-04-13 17:00:00 26.1 11 Sur 27 Sudeste 0 1010.8 -1.4 27
2019-04-13 16:00:00 27.1 5 Oeste 23 Noroeste 0 1011.3 -1.6 26
2019-04-13 15:00:00 26.8 8 Oeste 47 Oeste 0 1011.8 -1.8 27
2019-04-13 14:00:00 26 8 Oeste 33 Oeste 0 1012.2 -1.8 29
2019-04-13 13:00:00 24.7 5 Oeste 21 Oeste 0 1012.9 -1.1 30
2019-04-13 12:00:00 23.3 8 Sudoeste 16 Oeste 0 1013.6 -0.3 35
2019-04-13 11:00:00 20.6 9 Oeste 16 Noroeste 0 1014 0.5 41
2019-04-13 10:00:00 17.4 11 Oeste 19 Oeste 0 1014 1.1 45
2019-04-13 09:00:00 15.5 14 Oeste 21 Noroeste 0 1013.9 1.2 48
2019-04-13 08:00:00 14.3 13 Oeste 20 Noroeste 0 1013.5 1 50
2019-04-13 07:00:00 14.1 12 Oeste 19 Oeste 0 1012.9 0.3 52
2019-04-13 06:00:00 13.5 15 Oeste 21 Oeste 0 1012.7 -0.2 53
2019-04-13 05:00:00 14.6 6 Oeste 11 Oeste 0 1012.5 -0.5 49
2019-04-13 04:00:00 15.3 7 Oeste 15 Noroeste 0 1012.6 -0.2 46
2019-04-13 03:00:00 15.8 7 Oeste 13 Oeste 0 1012.9 0.5 44
2019-04-13 02:00:00 16.8 5 Noroeste 15 Noroeste 0 1013 1.1 41
2019-04-13 01:00:00 16.8 6 Noroeste 13 Noroeste 0 1012.8 1.8 41
2019-04-13 00:00:00 17.9 5 Norte 9 Noroeste 0 1012.4 2 39
2019-04-12 23:00:00 18.3 3 Norte 5 Norte 0 1011.9 2.1 40
2019-04-12 22:00:00 18.8 2 Este 11 Este 0 1011 1.3 43
2019-04-12 21:00:00 20.1 9 Este 13 Este 0 1010.4 0.6 36
2019-04-12 20:00:00 22.2 6 Sudeste 14 Sudeste 0 1009.8 -0.3 32
2019-04-12 19:00:00 23.5 10 Sur 21 Sur 0 1009.7 -1 30
2019-04-12 18:00:00 23.8 10 Sudeste 22 Sudeste 0 1009.8 -1.2 29
2019-04-12 17:00:00 23.8 11 Sudeste 23 Sur 0 1010.1 -1.2 29
2019-04-12 16:00:00 24.3 16 Sur 26 Sur 0 1010.7 -1.2 29
2019-04-12 15:00:00 24.5 15 Sur 29 Sur 0 1011 -1.2 30
2019-04-12 14:00:00 24.5 17 Sur 28 Sur 0 1011.3 -1.1 29
2019-04-12 13:00:00 24 8 Sudoeste 21 Sudoeste 0 1011.9 -0.7 29
2019-04-12 12:00:00 22.3 6 Sudoeste 18 Oeste 0 1012.2 -0.4 37
2019-04-12 11:00:00 19.7 10 Oeste 17 Oeste 0 1012.4 0.3 47
2019-04-12 10:00:00 16.5 9 Oeste 19 Noroeste 0 1012.6 0.8 56
2019-04-12 09:00:00 13.9 14 Noroeste 21 Noroeste 0 1012.6 1 62
2019-04-12 08:00:00 12.7 12 Oeste 18 Oeste 0 1012.1 0.5 64
2019-04-12 07:00:00 13.3 11 Oeste 19 Oeste 0 1011.8 -0.1 62
2019-04-12 06:00:00 13.7 11 Oeste 19 Oeste 0 1011.6 -0.7 59
2019-04-12 05:00:00 14.5 10 Oeste 16 Oeste 0 1011.6 -1.1 56
2019-04-12 04:00:00 14.4 9 Oeste 17 Oeste 0 1011.9 -0.6 56
2019-04-12 03:00:00 15.7 3 Norte 16 Norte 0 1012.3 0 49
2019-04-12 02:00:00 15.5 3 Norte 16 Oeste 0 1012.7 0.7 48
2019-04-12 01:00:00 15.2 7 Noroeste 10 Noroeste 0 1012.5 1.1 49
2019-04-12 00:00:00 16.2 2 Nordeste 7 Norte 0 1012.3 1.6 43
2019-04-11 23:00:00 17.3 3 Noroeste 9 Noroeste 0 1012 1.8 39
2019-04-11 22:00:00 18.4 4 Noroeste 14 Noroeste 0 1011.4 1.1 37
2019-04-11 21:00:00 19.7 5 Noroeste 19 Noroeste 0 1010.7 0.7 32
2019-04-11 20:00:00 21.4 7 Noroeste 22 Norte 0 1010.2 0.2 30
2019-04-11 19:00:00 22.3 9 Noroeste 31 Noroeste 0 1010.3 -0.2 30
2019-04-11 18:00:00 22.5 12 Noroeste 29 Noroeste 0 1010 -1 30
2019-04-11 17:00:00 22.4 14 Noroeste 33 Noroeste 0 1010 -1.5 32
2019-04-11 16:00:00 23 10 Noroeste 34 Noroeste 0 1010.5 -1.5 32
2019-04-11 15:00:00 22.2 15 Oeste 31 Noroeste 0 1011 -1.3 33
2019-04-11 14:00:00 21.2 15 Oeste 36 Oeste 0 1011.5 -1.1 35
2019-04-11 13:00:00 20.6 15 Oeste 35 Oeste 0 1012 -0.8 38
2019-04-11 12:00:00 19.9 5 Noroeste 16 Noroeste 0 1012.3 -0.7 45
2019-04-11 11:00:00 17.7 9 Oeste 20 Oeste 0 1012.6 -0.1 50
2019-04-11 10:00:00 16.1 10 Oeste 20 Oeste 0 1012.8 0.4 56
2019-04-11 09:00:00 14 9 Oeste 17 Oeste 0 1013 0.6 62
2019-04-11 08:00:00 12.8 10 Oeste 17 Oeste 0 1012.7 0.3 64
2019-04-11 07:00:00 12.1 5 Oeste 9 Oeste 0 1012.4 0.2 64
2019-04-11 06:00:00 13.2 4 Noroeste 14 Oeste 0 1012.4 -0.1 61
2019-04-11 05:00:00 12.8 6 Oeste 13 Oeste 0 1012.4 0 61
2019-04-11 04:00:00 12.6 5 Oeste 8 Oeste 0 1012.2 -0.1 59
2019-04-11 03:00:00 13.3 4 Oeste 8 Oeste 0 1012.5 0.5 56
2019-04-11 02:00:00 14.7 2 Norte 10 Noroeste 0 1012.4 0.5 53
2019-04-11 01:00:00 15.3 5 Noroeste 10 Noroeste 0 1012.3 1.3 55
2019-04-11 00:00:00 15.9 4 Noroeste 13 Oeste 0 1012 1.9 50
2019-04-10 23:00:00 16.4 5 Noroeste 11 Noroeste 0 1011.9 2.2 45
2019-04-10 22:00:00 17.5 8 Oeste 17 Noroeste 0 1011 1.5 42
2019-04-10 21:00:00 18 6 Noroeste 21 Noroeste 0 1010.1 0.4 42
2019-04-10 20:00:00 18.8 9 Noroeste 37 Noroeste 0 1009.7 -0.3 40
2019-04-10 19:00:00 19.6 9 Noroeste 32 Oeste 0 1009.5 -0.9 38
2019-04-10 18:00:00 19.7 12 Noroeste 35 Oeste 0 1009.7 -1.1 38
2019-04-10 17:00:00 19.9 11 Noroeste 38 Noroeste 0 1010 -1.4 36
2019-04-10 16:00:00 19.5 14 Noroeste 44 Noroeste 0 1010.4 -- 36
2019-04-10 15:00:00 19.1 9 Noroeste 32 Oeste 0 1010.8 -- 41
2019-04-10 14:00:00 18.4 10 Noroeste 33 Oeste 0 1011.4 -0.9 42
2019-04-10 13:00:00 -- 19 Oeste -- -- -- -- -- --
2019-04-10 12:00:00 -- -- -- -- -- -- -- -- --
2019-04-10 11:00:00 15.1 12 Noroeste 34 Noroeste 0 1012.3 0.3 55
2019-04-10 10:00:00 14.3 12 Noroeste 24 Noroeste 0 1012.5 0.9 59
2019-04-10 09:00:00 13.1 4 Noroeste 21 Oeste 0 1012.4 0.8 67
2019-04-10 08:00:00 12.5 8 Noroeste 27 Noroeste 0 1012 0.2 65
2019-04-10 07:00:00 12.9 10 Noroeste 26 Oeste 0 1011.6 -0.3 65
2019-04-10 06:00:00 13.3 9 Noroeste 22 Noroeste 0 1011.6 -0.6 65
2019-04-10 05:00:00 13.5 9 Oeste 25 Noroeste 0 1011.8 -0.6 65
2019-04-10 04:00:00 14.3 9 Noroeste 23 Oeste 0 1011.9 -0.5 61
2019-04-10 03:00:00 14.8 15 Oeste 28 Noroeste 0 1012.2 -0.4 59
2019-04-10 02:00:00 15.1 12 Oeste 26 Oeste 0 1012.4 -0.1 59
2019-04-10 01:00:00 14.9 7 Noroeste 14 Noroeste 0 1012.4 0.9 56
2019-04-10 00:00:00 15.5 6 Noroeste 25 Oeste 0 1012.6 1.8 52
2019-04-09 23:00:00 16.5 13 Noroeste 36 Noroeste 0 1012.5 2.1 48
2019-04-09 22:00:00 17.1 8 Noroeste 23 Noroeste 0 1011.5 1.5 45
2019-04-09 21:00:00 18 11 Noroeste 27 Noroeste 0 1010.8 0.7 41
2019-04-09 20:00:00 19.4 14 Noroeste 29 Noroeste 0 1010.4 0 36
2019-04-09 19:00:00 20.6 12 Noroeste 37 Noroeste 0 1010 -1.1 35
2019-04-09 18:00:00 20.8 13 Noroeste 34 Oeste 0 1010.1 -2 35
2019-04-09 17:00:00 20.7 12 Noroeste 28 Noroeste 0 1010.4 -1.9 35
2019-04-09 16:00:00 20.5 13 Noroeste 36 Oeste 0 1011.1 -1.8 40
2019-04-09 15:00:00 18.7 13 Noroeste 34 Oeste 0 1012.1 -1.2 41
2019-04-09 14:00:00 20 8 Noroeste 30 Noroeste 0 1012.3 -1.3 39
2019-04-09 13:00:00 17.7 12 Oeste 22 Oeste 0 1012.9 -0.9 46
2019-04-09 12:00:00 18.3 11 Oeste 27 Noroeste 0 1013.3 -0.3 48
2019-04-09 11:00:00 15.6 14 Oeste 28 Oeste 0 1013.6 0.5 59
2019-04-09 10:00:00 14.9 9 Noroeste 22 Oeste 0 1013.8 0.9 62
2019-04-09 09:00:00 13.3 0 Calma 10 Noroeste 0 1013.6 1.1 68
2019-04-09 08:00:00 11.8 0 Calma 9 Sudeste 0 1013.1 0.8 68
2019-04-09 07:00:00 12.3 3 Noroeste 14 Oeste 0 1012.9 0.6 65
2019-04-09 06:00:00 12.8 3 Oeste 16 Oeste 0 1012.5 0.2 62
2019-04-09 05:00:00 13.8 8 Oeste 24 Oeste 0 1012.3 0 61
2019-04-09 04:00:00 14.6 12 Noroeste 23 Oeste 0 1012.3 0.3 59
2019-04-09 03:00:00 14.8 12 Noroeste 25 Oeste 0 1012.3 0.5 61
2019-04-09 02:00:00 15.2 8 Noroeste 21 Noroeste 0 1012.3 0.9 56
2019-04-09 01:00:00 15.8 6 Noroeste 18 Noroeste 0 1012 1.3 56
2019-04-09 00:00:00 16.1 5 Noroeste 16 Norte 0 1011.8 1.4 64
2019-04-08 23:00:00 17.4 6 Noroeste 13 Noroeste 0 1011.4 1.5 56
2019-04-08 22:00:00 17.9 4 Noroeste 12 Noroeste 0 1010.7 1.1 58
2019-04-08 21:00:00 18.2 6 Oeste 19 Oeste 0 1010.4 0.8 58
2019-04-08 20:00:00 19.6 10 Oeste 22 Oeste 0 1009.9 0.2 47
2019-04-08 19:00:00 19.9 12 Oeste 25 Oeste 0 1009.6 -0.6 46
2019-04-08 18:00:00 20.9 17 Oeste 30 Oeste 0 1009.6 -1 47
2019-04-08 17:00:00 20.6 14 Oeste 23 Noroeste 0 1009.7 -1.2 49
2019-04-08 16:00:00 19.9 7 Sudeste 15 Este 0 1010.2 -1.2 56
2019-04-08 15:00:00 20.1 9 Sudeste 17 Sudeste 0 1010.6 -1.1 58
2019-04-08 14:00:00 20.4 5 Nordeste 17 Sudeste 0 1010.9 -0.9 53
2019-04-08 13:00:00 20.3 9 Sudeste 15 Este 0 1011.4 -0.6 53
2019-04-08 12:00:00 19.4 5 Sudeste 14 Sudeste 0 1011.7 -0.5 58
2019-04-08 11:00:00 18.1 2 Sudeste 10 Sudeste 0 1011.8 0 71
2019-04-08 10:00:00 14.9 5 Oeste 12 Sudoeste 0 1012 0.5 94
2019-04-08 09:00:00 12.3 3 Oeste 8 Oeste 0 1012.2 0.9 95
2019-04-08 08:00:00 11.7 3 Oeste 11 Sudoeste 0 1011.8 -0.1 95
2019-04-08 07:00:00 12.5 2 Norte 10 Oeste 0 1011.5 -0.3 95
2019-04-08 06:00:00 12.4 0 Calma 7 Oeste 0 1011.3 -0.8 94
2019-04-08 05:00:00 12.4 0 Calma 6 Sudoeste 0 1011.9 -0.6 94
2019-04-08 04:00:00 13 0 Calma 8 Sudoeste 0 1011.8 -0.6 92
2019-04-08 03:00:00 13.7 3 Norte 6 Norte 0 1012.1 -0.4 91
2019-04-08 02:00:00 13.8 3 Noroeste 8 Oeste 0 1012.5 0.1 91
2019-04-08 01:00:00 14.3 0 Calma 8 Noroeste 0 1012.4 0.6 89
2019-04-08 00:00:00 15.2 0 Calma 9 Noroeste 0 1012.5 1.2 85
2019-04-07 23:00:00 15.4 2 Noroeste 8 Norte 0 1012.4 1.6 83
2019-04-07 22:00:00 15.6 4 Norte 11 Norte 0 1011.8 1.2 80
2019-04-07 21:00:00 16.5 7 Nordeste 12 Nordeste 0 1011.3 1 68
2019-04-07 20:00:00 17.2 6 Sudeste 13 Este 0 1010.8 0.9 62
2019-04-07 19:00:00 17.6 7 Sudeste 12 Este 0 1010.6 0.3 59
2019-04-07 18:00:00 18.2 8 Nordeste 18 Nordeste 0 1010.3 -0.4 56
2019-04-07 17:00:00 19.1 6 Oeste 18 Noroeste 0 1009.9 -0.9 52
2019-04-07 16:00:00 18.1 6 Noroeste 24 Noroeste 0 1010.3 -0.8 53
2019-04-07 15:00:00 17.8 4 Oeste 20 Noroeste 0 1010.7 -0.2 56
2019-04-07 14:00:00 17 10 Noroeste 23 Sudoeste 0 1010.8 0.1 56
2019-04-07 13:00:00 16 13 Noroeste 24 Noroeste 0 1011.1 1 58
2019-04-07 12:00:00 14.9 10 Noroeste 22 Noroeste 0 1010.9 1.3 64
2019-04-07 11:00:00 13.7 9 Norte 22 Noroeste 0 1010.7 1.8 70
2019-04-07 10:00:00 13.2 8 Noroeste 21 Norte 0 1010.1 1.7 73
2019-04-07 09:00:00 12.7 8 Noroeste 20 Norte 0 1009.6 1.1 71
2019-04-07 08:00:00 12.1 8 Noroeste 28 Noroeste 0 1008.9 0.8 73
2019-04-07 07:00:00 12 6 Noroeste 18 Noroeste 0.2 1008.4 0.1 74
2019-04-07 06:00:00 13 8 Noroeste 20 Noroeste 0 1008.5 0.1 65
2019-04-07 05:00:00 12.8 3 Norte 14 Noroeste 0 1008.1 -0.1 64
2019-04-07 04:00:00 13.2 5 Noroeste 12 Norte 0 1008.3 0.3 64
2019-04-07 03:00:00 13.5 3 Norte 7 Norte 0 1008.4 0.7 64
2019-04-07 02:00:00 13.6 2 Noroeste 12 Noroeste 0 1008.2 0.9 64
2019-04-07 01:00:00 13 2 Noroeste 9 Noroeste 0 1008 1.5 68
2019-04-07 00:00:00 13 2 Oeste 9 Norte 0 1007.7 1.9 65
2019-04-06 23:00:00 12.7 5 Norte 13 Norte 0 1007.3 2.2 67
2019-04-06 22:00:00 12.6 2 Norte 27 Norte 0 1006.5 2 65
2019-04-06 21:00:00 13.7 9 Nordeste 24 Norte 0 1005.8 1.9 61
2019-04-06 20:00:00 15.4 6 Oeste 20 Noroeste 0 1005.1 1 55
2019-04-06 19:00:00 14.7 8 Norte 29 Noroeste 0 1004.5 -0.1 59
2019-04-06 18:00:00 16.2 15 Oeste 23 Noroeste 0.6 1003.9 -1 67
2019-04-06 17:00:00 15.4 5 Nordeste 12 Nordeste 0 1004.1 -0.6 61
2019-04-06 16:00:00 14.5 3 Noroeste 33 Noroeste 0.7 1004.6 -0.5 74
2019-04-06 15:00:00 16 7 Oeste 33 Oeste 0 1004.9 -0.6 50
2019-04-06 14:00:00 15.6 12 Oeste 32 Oeste 0 1004.7 -0.8 52
2019-04-06 13:00:00 17.1 10 Oeste 23 Sudoeste 0 1005.1 -0.3 44
2019-04-06 12:00:00 16.4 10 Oeste 21 Noroeste 0 1005.5 0.2 49
2019-04-06 11:00:00 14.6 11 Oeste 19 Oeste 0 1005.5 0.8 55
2019-04-06 10:00:00 14 6 Oeste 14 Noroeste 0 1005.4 1 61
2019-04-06 09:00:00 11.4 5 Sudoeste 18 Norte 0 1005.3 1.1 63
2019-04-06 08:00:00 11.6 6 Norte 13 Nordeste 0 1004.7 0.9 61
2019-04-06 07:00:00 11.7 4 Noroeste 14 Noroeste 0 1004.4 0.5 61
2019-04-06 06:00:00 11.1 3 Oeste 16 Noroeste 0 1004.2 0.4 61
2019-04-06 05:00:00 11.2 6 Noroeste 17 Noroeste 0 1003.8 -0.3 59
2019-04-06 04:00:00 11.6 8 Noroeste 19 Norte 0 1003.9 0.1 56
2019-04-06 03:00:00 11.7 7 Noroeste 21 Noroeste 0 1003.8 0.9 55
2019-04-06 02:00:00 12.1 15 Oeste 24 Oeste 0 1004.1 1.4 53
2019-04-06 01:00:00 12.5 10 Noroeste 30 Oeste 0 1003.8 2 53
2019-04-06 00:00:00 13 17 Noroeste 31 Noroeste 0 1002.9 2 50
2019-04-05 23:00:00 13 3 Noroeste 14 Norte 0 1002.7 2.7 46
2019-04-05 22:00:00 13.3 5 Norte 27 Noroeste 0 1001.8 2.5 43
2019-04-05 21:00:00 14.2 8 Noroeste 32 Noroeste 0 1000.9 2.3 39
2019-04-05 20:00:00 15.4 15 Noroeste 38 Oeste 0 1000 1.6 36
2019-04-05 19:00:00 15.8 17 Oeste 33 Oeste 0 999.3 0.7 38
2019-04-05 18:00:00 16.2 12 Noroeste 36 Oeste 0 998.6 -0.8 38
2019-04-05 17:00:00 18 13 Oeste 37 Oeste 0 998.4 -0.9 37
2019-04-05 16:00:00 16.6 7 Oeste 21 Noroeste 0 998.6 -0.7 55
2019-04-05 15:00:00 14.7 6 Sudoeste 15 Sudoeste 0 999.4 0.1 88
2019-04-05 14:00:00 12.1 4 Norte 19 Oeste 3.3 999.3 0.1 91
2019-04-05 13:00:00 13.3 11 Sur 19 Sudoeste 0.1 999.3 0.3 83
2019-04-05 12:00:00 13.3 8 Sudeste 14 Sudeste 0 999.3 0 89
2019-04-05 11:00:00 12.5 2 Nordeste 11 Norte 3.3 999.2 -0.2 91
2019-04-05 10:00:00 13.1 0 Calma 12 Sur 2.2 999 -0.5 88
2019-04-05 09:00:00 13.5 4 Sudeste 14 Sudoeste 0.4 999.3 -0.1 65
2019-04-05 08:00:00 13.2 3 Sur 18 Este 0 999.4 -0.5 55
2019-04-05 07:00:00 12.3 0 Calma 5 Nordeste 0 999.5 -0.5 55
2019-04-05 06:00:00 11.9 0 Calma 8 Sudoeste 0 999.4 -1.2 53
2019-04-05 05:00:00 12.9 0 Calma 7 Noroeste 0 999.9 -0.4 48
2019-04-05 04:00:00 13.3 0 Calma 12 Noroeste 0 1000 0.2 47
2019-04-05 03:00:00 13.2 6 Oeste 16 Oeste 0 1000.6 1.1 47
2019-04-05 02:00:00 13.6 8 Noroeste 16 Noroeste 0 1000.3 1.1 47
2019-04-05 01:00:00 13.2 0 Calma 9 Sudoeste 0 999.8 1.2 49
2019-04-05 00:00:00 14.8 0 Calma 13 Norte 0 999.5 1.5 44
2019-04-04 23:00:00 15.8 4 Norte 14 Norte 0 999.2 1.8 44
2019-04-04 22:00:00 16.5 0 Calma 17 Nordeste 0 998.6 1.3 50
2019-04-04 21:00:00 17.1 8 Nordeste 14 Nordeste 0 998 0.7 47
2019-04-04 20:00:00 19 9 Sudoeste 18 Sudoeste 0 997.4 0 38
2019-04-04 19:00:00 20.4 11 Sudoeste 31 Sudoeste 0 997.3 -0.5 37
2019-04-04 18:00:00 21.2 18 Sudoeste 35 Sur 0 997.3 -1.2 35
2019-04-04 17:00:00 22 21 Sur 32 Sur 0 997.4 -1.7 35
2019-04-04 16:00:00 21.9 22 Sur 33 Sur 0 997.8 -1.9 35
2019-04-04 15:00:00 22 4 Oeste 20 Sudoeste 0 998.5 -1.6 28
2019-04-04 14:00:00 21.9 10 Sudoeste 21 Sudoeste 0 999.1 -1 29
2019-04-04 13:00:00 20.7 12 Oeste 30 Oeste 0 999.7 -0.3 30
2019-04-04 12:00:00 18.7 9 Oeste 18 Noroeste 0 1000.1 0.4 34
2019-04-04 11:00:00 17.5 11 Sudoeste 23 Oeste 0 1000.1 1.3 38
2019-04-04 10:00:00 14.9 12 Oeste 21 Oeste 0 1000 1.8 44
2019-04-04 09:00:00 12.4 9 Oeste 14 Noroeste 0 999.7 2 52
2019-04-04 08:00:00 11.6 8 Oeste 16 Oeste 0 998.8 1.4 52
2019-04-04 07:00:00 12.2 9 Oeste 18 Oeste 0 998.2 1 50
2019-04-04 06:00:00 13.1 8 Oeste 22 Oeste 0 997.7 0.3 50
2019-04-04 05:00:00 14.3 12 Oeste 29 Oeste 0 997.4 -0.6 49
2019-04-04 04:00:00 14.8 15 Oeste 28 Oeste 0 997.2 -1.1 49
2019-04-04 03:00:00 15.7 14 Noroeste 27 Noroeste 0 997.4 -1.1 47
2019-04-04 02:00:00 16.4 13 Noroeste 30 Oeste 0 998 -0.7 44
2019-04-04 01:00:00 17 15 Oeste 28 Oeste 0 998.3 -0.1 43
2019-04-04 00:00:00 17.7 13 Oeste 25 Oeste 0 998.5 0.8 41
2019-04-03 23:00:00 18.3 11 Oeste 19 Oeste 0 998.7 1.4 39
2019-04-03 22:00:00 19.3 11 Oeste 20 Oeste 0 998.4 0.9 38
2019-04-03 21:00:00 20.8 5 Noroeste 31 Nordeste 0 997.7 -0.3 36
2019-04-03 20:00:00 22.9 9 Noroeste 22 Oeste 0 997.3 -1.7 35
2019-04-03 19:00:00 21.9 8 Este 17 Nordeste 0 997.5 -2.6 47
2019-04-03 18:00:00 22.2 8 Este 15 Este 0 998 -3.1 49
2019-04-03 17:00:00 21.6 10 Sudeste 21 Sudeste 0 999 -2.8 50
2019-04-03 16:00:00 22 10 Este 22 Sudeste 0 1000.1 -2.5 47
2019-04-03 15:00:00 23.8 17 Sudeste 27 Sudeste 0 1001.1 -1.9 41
2019-04-03 14:00:00 24 15 Sur 27 Sudeste 0 1001.8 -1.7 43
2019-04-03 13:00:00 23.2 12 Sur 19 Sur 0 1002.6 -1.4 46
2019-04-03 12:00:00 21.8 10 Sudoeste 17 Oeste 0 1003 -1.7 47
2019-04-03 11:00:00 18.7 9 Oeste 17 Oeste 0 1003.5 -1.7 58
2019-04-03 10:00:00 16.1 7 Oeste 13 Oeste 0 1004 -1.6 65
2019-04-03 09:00:00 14.2 7 Noroeste 16 Oeste 0 1004.7 -1.5 71
2019-04-03 08:00:00 13.3 8 Oeste 14 Oeste 0 1005.2 -1.7 74
2019-04-03 07:00:00 14.1 9 Oeste 17 Oeste 0 1005.6 -1.5 71
2019-04-03 06:00:00 14.3 8 Noroeste 14 Noroeste 0 1006.2 -1.5 71
2019-04-03 05:00:00 14.6 7 Noroeste 16 Noroeste 0 1006.9 -1.4 71
2019-04-03 04:00:00 15 8 Noroeste 13 Noroeste 0 1007.1 -1.4 70
2019-04-03 03:00:00 15 6 Noroeste 10 Noroeste 0 1007.7 -1.1 71
2019-04-03 02:00:00 15.1 6 Oeste 11 Noroeste 0 1008.3 -0.3 74
2019-04-03 01:00:00 16.3 4 Norte 9 Noroeste 0 1008.5 0.3 73
2019-04-03 00:00:00 16.5 4 Noroeste 6 Norte 0 1008.8 0.8 73
2019-04-02 23:00:00 16.6 0 Calma 5 Sudoeste 0 1008.6 0.5 70
2019-04-02 22:00:00 17.5 0 Calma 7 Nordeste 0 1008.2 0.1 64
2019-04-02 21:00:00 18.1 6 Nordeste 19 Nordeste 0 1008 -0.2 61
2019-04-02 20:00:00 18.3 12 Nordeste 21 Nordeste 0 1008.1 -0.5 64
2019-04-02 19:00:00 19.3 12 Este 17 Este 0 1008.1 -1.3 61
2019-04-02 18:00:00 20.4 11 Nordeste 21 Nordeste 0 1008.2 -1.8 58
2019-04-02 17:00:00 20 11 Nordeste 18 Nordeste 0 1008.6 -1.8 58
2019-04-02 16:00:00 19.7 8 Sudeste 18 Sudeste 0 1009.4 -1.7 56
2019-04-02 15:00:00 21 9 Sudeste 20 Sudeste 0 1010 -1.8 50
2019-04-02 14:00:00 21.4 9 Sudeste 15 Sudeste 0 1010.4 -1.6 50
2019-04-02 13:00:00 20.9 8 Sudeste 14 Sudeste 0 1011.1 -0.9 52
2019-04-02 12:00:00 19.2 3 Sur 9 Sudoeste 0 1011.8 -0.3 58
2019-04-02 11:00:00 16.8 4 Oeste 13 Oeste 0 1012 0.4 71
2019-04-02 10:00:00 13.6 8 Oeste 11 Oeste 0 1012 0.4 91
2019-04-02 09:00:00 11.2 6 Oeste 8 Oeste 0 1012.1 0.6 92
2019-04-02 08:00:00 10.4 3 Noroeste 10 Oeste 0 1011.6 0 92
2019-04-02 07:00:00 10.8 5 Oeste 11 Oeste 0 1011.6 -0.1 91
2019-04-02 06:00:00 11.1 6 Oeste 13 Noroeste 0 1011.5 -0.7 91
2019-04-02 05:00:00 11.9 5 Noroeste 10 Oeste 0 1011.6 -0.6 91
2019-04-02 04:00:00 12.1 5 Noroeste 11 Oeste 0 1011.7 -0.6 91
2019-04-02 03:00:00 12.4 4 Noroeste 10 Oeste 0 1012.2 0.1 92
2019-04-02 02:00:00 13.6 5 Noroeste 10 Noroeste 0 1012.2 0.5 91
2019-04-02 01:00:00 13.4 3 Noroeste 6 Noroeste 0 1012.3 1.2 89
2019-04-02 00:00:00 13.8 0 Calma 6 Oeste 0 1012.1 2.1 86
2019-04-01 23:00:00 14.8 3 Norte 12 Nordeste 0 1011.7 2 83
2019-04-01 22:00:00 15.1 8 Nordeste 14 Este 0 1011.1 1.8 82
2019-04-01 21:00:00 15.5 9 Este 17 Este 0 1010 0.6 82
2019-04-01 20:00:00 16.1 12 Este 21 Sudeste 0 1009.7 0 79
2019-04-01 19:00:00 17.1 11 Sudeste 20 Este 0 1009.3 -0.6 76
2019-04-01 18:00:00 17.5 11 Sudeste 19 Sudeste 0 1009.4 -0.9 76
2019-04-01 17:00:00 16.9 9 Este 18 Sudeste 0 1009.7 -0.6 76
2019-04-01 16:00:00 16.6 10 Sudeste 15 Este 0 1009.9 -0.6 86
2019-04-01 15:00:00 16.3 6 Sudeste 13 Sudeste 0.2 1010.3 0.2 89
2019-04-01 14:00:00 16.7 9 Sudeste 16 Sudeste 0.4 1010.3 0.2 85
2019-04-01 13:00:00 16.6 5 Sudeste 18 Sudeste 0.9 1010.5 1 86
2019-04-01 12:00:00 18.1 5 Sudeste 14 Este 0 1010.1 1.2 79
2019-04-01 11:00:00 14.8 2 Este 5 Noroeste 0 1010.1 1.7 95
2019-04-01 10:00:00 13.8 2 Sudoeste 6 Oeste 0.3 1009.5 1.5 95
2019-04-01 09:00:00 13.5 3 Oeste 11 Oeste 0.4 1008.9 1.1 95
2019-04-01 08:00:00 13.2 3 Noroeste 8 Norte 0 1008.4 0.4 95
2019-04-01 07:00:00 13.2 3 Norte 9 Oeste 0 1008 -0.1 95
2019-04-01 06:00:00 13.3 5 Sudoeste 7 Sudoeste 0 1007.8 -0.7 95
2019-04-01 05:00:00 14 0 Calma 4 Noroeste 0 1008 -0.4 95
2019-04-01 04:00:00 13.9 3 Oeste 11 Sudoeste 0.1 1008.1 0.3 95
2019-04-01 03:00:00 14.3 3 Nordeste 7 Nordeste 0 1008.5 0.7 94
2019-04-01 02:00:00 14.3 0 Calma 4 Sudoeste 0 1008.4 0.9 92
2019-04-01 01:00:00 14.5 0 Calma 6 Norte 0 1007.8 0.8 91
2019-04-01 00:00:00 15.1 3 Noroeste 8 Noroeste 0 1007.8 1.8 91
2019-03-31 23:00:00 15.4 7 Nordeste 16 Nordeste 0 1007.5 2.4 89
2019-03-31 22:00:00 15.2 9 Nordeste 20 Nordeste 0 1007 1.9 91
2019-03-31 21:00:00 15.1 12 Nordeste 25 Nordeste 0 1006 1.4 91
2019-03-31 20:00:00 15 17 Este 27 Nordeste 0.3 1005.1 0.6 91
2019-03-31 19:00:00 15.8 15 Nordeste 25 Nordeste 0 1005.1 0.1 86
2019-03-31 18:00:00 17.6 13 Este 21 Este 0 1004.6 -1.3 76
2019-03-31 17:00:00 17.8 11 Este 18 Nordeste 0 1004.5 -2 76
2019-03-31 16:00:00 18.3 8 Este 15 Sudeste 0 1005 -2.3 77
2019-03-31 15:00:00 17.1 8 Sudeste 14 Sur 0 1005.9 -1.8 85
2019-03-31 14:00:00 16.4 5 Sudoeste 9 Sur 0 1006.5 -1.2 95
2019-03-31 13:00:00 15.1 6 Oeste 10 Oeste 0 1007.3 -0.3 96
2019-03-31 12:00:00 14.5 8 Oeste 11 Oeste 1.5 1007.7 0.1 96
2019-03-31 11:00:00 13.4 7 Oeste 11 Oeste 3.3 1007.7 0.2 96
2019-03-31 10:00:00 13.3 2 Noroeste 5 Noroeste 2.3 1007.6 -0.1 96
2019-03-31 09:00:00 13 0 Calma 4 Noroeste 2.2 1007.6 -0.4 96
2019-03-31 08:00:00 13.1 0 Calma 9 Oeste 1.7 1007.5 -1.1 96
2019-03-31 07:00:00 13.3 6 Sudoeste 10 Oeste 1.8 1007.7 -1.6 96
2019-03-31 06:00:00 13.4 7 Sudoeste 10 Sudoeste 2.1 1008 -2.1 96
2019-03-31 05:00:00 13.7 3 Sur 10 Sudeste 1.5 1008.6 -2.3 96
2019-03-31 03:00:00 14.3 8 Sudeste 14 Sudeste 0.5 1010.1 -2.1 95
2019-03-31 01:00:00 14.2 10 Sudeste 23 Sudeste 0.8 1010.9 -1.1 95
2019-03-31 00:00:00 14.6 11 Sudeste 26 Sudeste 0.1 1011.8 0 91
2019-03-30 23:00:00 14.9 14 Sudeste 29 Sudeste 0 1012.2 0.8 86
2019-03-30 22:00:00 15.1 12 Este 23 Este 0 1012 0.2 83
2019-03-30 21:00:00 14.8 9 Sudeste 15 Sudeste 0 1011.8 -0.2 83
2019-03-30 20:00:00 14.9 8 Sudeste 15 Sudeste 0 1011.4 -0.6 80
2019-03-30 19:00:00 15.3 10 Sudeste 22 Sudeste 0 1011.8 -0.1 79
2019-03-30 18:00:00 15.7 13 Sudeste 27 Este 0 1012 -0.6 76
2019-03-30 17:00:00 16.3 14 Sudeste 31 Sudeste 0 1012 -1.4 74
2019-03-30 16:00:00 16.5 20 Sudeste 35 Sudeste 0 1011.9 -1.9 71
2019-03-30 15:00:00 16.7 23 Sudeste 34 Sudeste 0 1012.6 -1.8 67
2019-03-30 14:00:00 18.3 19 Sudeste 35 Sudeste 0 1013.4 -1.4 64
2019-03-30 13:00:00 17.5 23 Sudeste 33 Sudeste 0 1013.8 -1.2 65
2019-03-30 12:00:00 17.4 21 Sudeste 33 Este 0 1014.4 -0.6 65
2019-03-30 11:00:00 17.1 18 Sudeste 30 Sudeste 0 1014.8 -0.7 65
2019-03-30 10:00:00 16 18 Sudeste 33 Sudeste 0 1015 -0.9 68
2019-03-30 09:00:00 14.5 16 Sudeste 26 Sudeste 0 1015 -0.8 75
2019-03-30 08:00:00 14.3 12 Sudeste 26 Sudeste 0 1015.5 -0.5 76
2019-03-30 07:00:00 14 13 Sudeste 27 Sudeste 0 1015.9 -0.4 77
2019-03-30 06:00:00 14.2 15 Sudeste 26 Sudeste 0 1015.8 -1 77
2019-03-30 05:00:00 14.5 12 Sudeste 24 Sudeste 0 1016 -1.1 77
2019-03-30 04:00:00 14.6 13 Sudeste 24 Sudeste 0 1016.3 -1.6 77
2019-03-30 03:00:00 14.6 14 Sudeste 24 Sudeste 0 1016.8 -1.3 77
2019-03-30 02:00:00 14.4 12 Sudeste 26 Sudeste 0 1017.1 -1.2 79
2019-03-30 01:00:00 14.7 15 Sudeste 29 Sudeste 0 1017.9 -0.4 79
2019-03-30 00:00:00 14.8 19 Sudeste 31 Sudeste 0 1018.1 0.3 77
2019-03-29 23:00:00 14.9 18 Sudeste 30 Sudeste 0 1018.3 1.2 76
2019-03-29 22:00:00 15 17 Sudeste 28 Sudeste 0 1018.3 1.2 74
2019-03-29 21:00:00 15.1 14 Sudeste 22 Sudeste 0 1017.8 0.9 74
2019-03-29 20:00:00 15 9 Sudeste 17 Sudeste 0 1017.1 0.4 73
2019-03-29 19:00:00 15.5 10 Sudeste 21 Sudeste 0 1017.1 -0.1 71
2019-03-29 18:00:00 16.3 14 Sudeste 22 Sudeste 0 1016.9 -0.7 68
2019-03-29 17:00:00 17.3 12 Sudeste 27 Sudeste 0 1016.7 -1.4 62
2019-03-29 16:00:00 17.8 17 Sudeste 30 Sudeste 0 1017.2 -1.4 62
2019-03-29 15:00:00 18.9 15 Sudeste 32 Sudeste 0 1017.6 -1.4 61
2019-03-29 14:00:00 18.6 18 Sudeste 35 Sudeste 0 1018.1 -1.3 58
2019-03-29 13:00:00 18.4 20 Sudeste 34 Sudeste 0 1018.6 -0.8 58
2019-03-29 12:00:00 17.4 21 Sudeste 32 Sudeste 0 1019 -0.2 61
2019-03-29 11:00:00 15.7 18 Sudeste 35 Sudeste 0 1019.4 0.3 64
2019-03-29 10:00:00 16.3 17 Sudeste 35 Sudeste 0 1019.4 0.7 65
2019-03-29 09:00:00 15.8 21 Sudeste 38 Sudeste 0 1019.2 0.8 65
2019-03-29 08:00:00 14.6 16 Sudeste 26 Sudeste 0 1019.1 0.6 67
2019-03-29 07:00:00 12.3 2 Sudeste 16 Sur 0 1018.7 0 68
2019-03-29 06:00:00 12.4 0 Calma 12 Sudeste 0 1018.4 -0.3 68
2019-03-29 05:00:00 11.8 3 Este 12 Sudeste 0 1018.5 -0.5 73
2019-03-29 04:00:00 11.6 0 Calma 5 Nordeste 0 1018.7 -0.4 73
2019-03-29 03:00:00 12.4 0 Calma 6 Nordeste 0 1018.7 -0.7 74
2019-03-29 02:00:00 13.1 3 Nordeste 19 Este 0 1019 -0.8 73
2019-03-29 01:00:00 14 10 Sudeste 30 Sudeste 0 1019.1 -0.8 73
2019-03-29 00:00:00 14.4 15 Sudeste 27 Sudeste 0 1019.4 -0.1 70
2019-03-28 23:00:00 14.5 16 Sudeste 31 Sudeste 0 1019.8 0.8 71
2019-03-28 22:00:00 14.6 14 Sudeste 30 Este 0 1019.9 1 71
2019-03-28 21:00:00 14.7 17 Sudeste 30 Sudeste 0 1019.5 1 65
2019-03-28 20:00:00 14.7 15 Este 31 Sudeste 0 1019 0.5 65
2019-03-28 19:00:00 15.2 16 Sudeste 28 Sudeste 0 1018.9 0.2 67
2019-03-28 18:00:00 16.2 18 Sudeste 33 Sudeste 0 1018.5 -0.7 62
2019-03-28 17:00:00 17.1 19 Sudeste 36 Sudeste 0 1018.5 -1.3 61
2019-03-28 16:00:00 17.5 20 Sudeste 37 Sudeste 0 1018.7 -1.4 59
2019-03-28 15:00:00 17.4 22 Este 42 Sudeste 0 1019.2 -1.5 55
2019-03-28 14:00:00 18 21 Sudeste 40 Este 0 1019.8 -1.4 55
2019-03-28 13:00:00 17.7 24 Sudeste 41 Sudeste 0 1020.1 -1.2 50
2019-03-28 12:00:00 17.8 21 Sudeste 37 Sudeste 0 1020.7 -0.5 46
2019-03-28 11:00:00 17.5 19 Sudeste 31 Sudeste 0 1021.2 0.6 46
2019-03-28 10:00:00 16.8 14 Este 27 Este 0 1021.3 1.2 50
2019-03-28 09:00:00 15.5 15 Sudeste 22 Sudeste 0 1021.2 1.6 53
2019-03-28 08:00:00 14.2 12 Este 28 Sudeste 0 1020.6 0.9 59
2019-03-28 07:00:00 13.6 15 Sudeste 30 Este 0 1020.1 0.6 62
2019-03-28 06:00:00 13.6 16 Sudeste 30 Sudeste 0 1019.6 0 65
2019-03-28 05:00:00 13.8 17 Sudeste 32 Sudeste 0 1019.7 -0.4 65
2019-03-28 04:00:00 13.8 15 Sudeste 28 Sudeste 0 1019.5 -0.9 67
2019-03-28 03:00:00 13.9 17 Sudeste 31 Sudeste 0 1019.6 -0.7 65
2019-03-28 02:00:00 14.2 18 Sudeste 31 Sudeste 0 1020.1 0 61
2019-03-28 01:00:00 14.8 17 Sudeste 32 Sudeste 0 1020.4 0.6 70
2019-03-28 00:00:00 14.8 19 Sudeste 35 Sudeste 0 1020.3 1.3 70
2019-03-27 23:00:00 15 21 Sudeste 32 Sudeste 0 1020.1 2 70
2019-03-27 22:00:00 15.3 12 Sudeste 25 Sudeste 0 1019.8 2.3 68
2019-03-27 21:00:00 15.1 17 Sudeste 26 Sudeste 0 1019 2.2 70
2019-03-27 20:00:00 15.4 13 Sudeste 26 Sudeste 0 1018.1 1.8 67
2019-03-27 19:00:00 15.6 15 Sudeste 29 Sur 0 1017.5 1.1 61
2019-03-27 18:00:00 16.6 17 Sudeste 31 Sudeste 0 1016.8 0.6 58
2019-03-27 17:00:00 17.4 18 Sudeste 33 Sudeste 0 1016.3 0.2 53
2019-03-27 16:00:00 17.8 22 Sudeste 39 Sudeste 0 1016.4 0.3 50
2019-03-27 15:00:00 18.1 22 Sudeste 38 Sudeste 0 1016.2 0.4 47
2019-03-27 14:00:00 19.2 20 Sudeste 36 Sudeste 0 1016.1 0.3 46
2019-03-27 13:00:00 19.3 21 Sudeste 37 Sudeste 0 1016.1 0.7 42
2019-03-27 12:00:00 18.7 17 Sudeste 31 Sur 0 1015.8 0.7 40
2019-03-27 11:00:00 18.4 17 Sudeste 31 Sudeste 0 1015.8 1.1 46
2019-03-27 10:00:00 16.8 19 Sudeste 41 Sudeste 0 1015.4 1.4 48
2019-03-27 09:00:00 15.5 12 Este 34 Sudeste 0 1015.1 1.4 56
2019-03-27 08:00:00 14.3 9 Este 46 Sudeste 0 1014.7 1.2 58
2019-03-27 07:00:00 14.5 26 Sudeste 44 Sudeste 0 1014 0.3 56
2019-03-27 06:00:00 14.6 21 Sudeste 48 Sudeste 0 1013.7 0 55
2019-03-27 05:00:00 14.7 19 Sudeste 48 Sudeste 0 1013.5 -0.3 53
2019-03-27 04:00:00 14.6 21 Sudeste 40 Sudeste 0 1013.7 0.2 58
2019-03-27 03:00:00 14.4 21 Sudeste 41 Sudeste 0 1013.7 1 67
2019-03-27 02:00:00 14.7 23 Sudeste 41 Sudeste 0 1013.8 1.2 65
2019-03-27 01:00:00 15.8 19 Sudeste 34 Este 0 1013.5 1.4 65
2019-03-27 00:00:00 16 17 Sudeste 32 Sudeste 0 1012.7 1.1 70